createdAt,value
2022-07-25T00:02:10.007Z,26.80
2022-07-25T00:04:38.428Z,26.70
2022-07-25T00:07:06.726Z,26.80
2022-07-25T00:09:35.050Z,26.80
2022-07-25T00:12:05.004Z,26.80
2022-07-25T00:14:34.224Z,26.70
2022-07-25T00:17:02.830Z,26.70
2022-07-25T00:19:31.166Z,26.70
2022-07-25T00:21:59.568Z,26.70
2022-07-25T00:24:27.793Z,26.70
2022-07-25T00:26:56.097Z,26.70
2022-07-25T00:29:25.744Z,26.70
2022-07-25T00:31:53.937Z,26.70
2022-07-25T00:34:22.159Z,26.70
2022-07-25T00:36:50.341Z,27.10
2022-07-25T00:39:18.554Z,26.70
2022-07-25T00:41:46.778Z,26.70
2022-07-25T00:44:25.269Z,26.70
2022-07-25T00:46:53.730Z,26.80
2022-07-25T00:49:22.040Z,26.80
2022-07-25T00:51:50.297Z,26.70
2022-07-25T00:54:18.692Z,27.20
2022-07-25T00:56:46.904Z,26.70
2022-07-25T00:59:15.096Z,26.80
2022-07-25T01:01:45.765Z,26.80
2022-07-25T01:04:14.035Z,26.80
2022-07-25T01:06:42.222Z,26.70
2022-07-25T01:09:10.377Z,26.70
2022-07-25T01:11:38.696Z,26.70
2022-07-25T01:14:07.354Z,26.70
2022-07-25T01:16:35.831Z,26.80
2022-07-25T01:19:05.664Z,26.70
2022-07-25T01:21:35.364Z,26.70
2022-07-25T01:24:03.976Z,26.70
2022-07-25T01:26:32.771Z,26.70
2022-07-25T01:29:00.971Z,26.70
2022-07-25T01:31:29.274Z,26.70
2022-07-25T01:33:57.537Z,26.70
2022-07-25T01:36:26.306Z,26.70
2022-07-25T01:38:55.967Z,26.70
2022-07-25T01:41:24.204Z,26.80
2022-07-25T01:43:52.421Z,26.70
2022-07-25T01:46:20.750Z,26.70
2022-07-25T01:48:49.019Z,26.70
2022-07-25T01:51:20.451Z,26.70
2022-07-25T01:53:48.874Z,26.70
2022-07-25T01:56:21.877Z,26.80
2022-07-25T01:58:50.747Z,26.70
2022-07-25T02:01:19.467Z,26.70
2022-07-25T02:03:50.580Z,26.70
2022-07-25T02:06:18.988Z,26.70
2022-07-25T02:08:47.205Z,26.80
2022-07-25T02:11:16.111Z,26.70
2022-07-25T02:13:45.790Z,26.70
2022-07-25T02:16:14.029Z,26.70
2022-07-25T02:18:42.268Z,26.70
2022-07-25T02:21:14.017Z,26.70
2022-07-25T02:23:43.489Z,26.70
2022-07-25T02:26:11.839Z,26.60
2022-07-25T02:28:40.056Z,26.70
2022-07-25T02:31:09.764Z,26.60
2022-07-25T02:33:38.813Z,26.60
2022-07-25T02:36:07.796Z,26.70
2022-07-25T02:38:35.975Z,26.60
2022-07-25T02:41:04.276Z,26.60
2022-07-25T02:43:32.482Z,26.60
2022-07-25T02:46:00.748Z,26.70
2022-07-25T02:48:30.439Z,27.20
2022-07-25T02:50:58.776Z,26.60
2022-07-25T02:53:54.414Z,26.70
2022-07-25T02:56:15.517Z,26.70
2022-07-25T02:58:44.664Z,26.70
2022-07-25T03:01:12.949Z,26.60
2022-07-25T03:03:42.601Z,26.60
2022-07-25T03:06:10.855Z,27.20
2022-07-25T03:08:39.032Z,26.60
2022-07-25T03:11:07.268Z,26.70
2022-07-25T03:13:35.484Z,26.60
2022-07-25T03:16:03.756Z,26.70
2022-07-25T03:18:31.931Z,26.70
2022-07-25T03:21:01.579Z,26.60
2022-07-25T03:23:31.080Z,26.70
2022-07-25T03:25:59.458Z,26.70
2022-07-25T03:28:27.682Z,26.80
2022-07-25T03:30:55.902Z,26.70
2022-07-25T03:33:24.088Z,26.70
2022-07-25T03:35:52.303Z,26.70
2022-07-25T03:38:21.890Z,26.60
2022-07-25T03:40:50.168Z,26.60
2022-07-25T03:43:18.364Z,26.60
2022-07-25T03:45:46.715Z,26.60
2022-07-25T03:48:15.060Z,26.60
2022-07-25T03:50:43.304Z,26.70
2022-07-25T03:53:11.532Z,26.70
2022-07-25T03:55:41.612Z,26.60
2022-07-25T03:58:09.835Z,26.60
2022-07-25T04:00:38.055Z,26.70
2022-07-25T04:03:07.016Z,26.70
2022-07-25T04:05:35.362Z,26.60
2022-07-25T04:08:03.671Z,26.70
2022-07-25T04:10:33.133Z,26.70
2022-07-25T04:13:03.598Z,26.60
2022-07-25T04:15:31.798Z,26.60
2022-07-25T04:18:05.124Z,26.60
2022-07-25T04:20:37.583Z,26.70
2022-07-25T04:23:05.845Z,26.60
2022-07-25T04:25:34.020Z,26.60
2022-07-25T04:28:03.619Z,26.60
2022-07-25T04:30:31.807Z,26.70
2022-07-25T04:33:00.203Z,26.70
2022-07-25T04:35:28.375Z,26.60
2022-07-25T04:37:56.611Z,26.70
2022-07-25T04:40:24.813Z,26.70
2022-07-25T04:42:53.020Z,26.60
2022-07-25T04:45:22.857Z,26.70
2022-07-25T04:47:51.200Z,26.70
2022-07-25T04:50:24.557Z,26.60
2022-07-25T04:52:53.298Z,26.60
2022-07-25T04:55:21.940Z,26.60
2022-07-25T04:57:50.186Z,26.60
2022-07-25T05:00:18.902Z,26.60
2022-07-25T05:02:48.520Z,26.60
2022-07-25T05:05:20.955Z,26.70
2022-07-25T05:07:50.535Z,26.50
2022-07-25T05:10:18.781Z,26.60
2022-07-25T05:12:47.027Z,26.70
2022-07-25T05:15:15.218Z,26.60
2022-07-25T05:17:43.473Z,26.60
2022-07-25T05:20:13.765Z,26.70
2022-07-25T05:22:44.995Z,26.60
2022-07-25T05:25:13.509Z,26.50
2022-07-25T05:27:41.792Z,26.60
2022-07-25T05:30:10.990Z,27.10
2022-07-25T05:32:39.422Z,26.60
2022-07-25T05:35:10.732Z,26.50
2022-07-25T05:37:40.328Z,26.60
2022-07-25T05:40:08.796Z,26.50
2022-07-25T05:42:37.105Z,26.50
2022-07-25T05:45:06.015Z,26.50
2022-07-25T05:47:34.292Z,26.50
2022-07-25T05:50:03.381Z,26.50
2022-07-25T05:52:31.665Z,26.50
2022-07-25T05:55:01.223Z,26.60
2022-07-25T05:57:29.426Z,27.00
2022-07-25T05:59:58.063Z,26.50
2022-07-25T06:02:26.419Z,26.50
2022-07-25T06:04:54.768Z,26.50
2022-07-25T06:07:23.424Z,26.50
2022-07-25T06:09:51.607Z,26.50
2022-07-25T06:12:21.183Z,26.50
2022-07-25T06:14:52.604Z,26.50
2022-07-25T06:17:21.694Z,26.40
2022-07-25T06:19:49.930Z,26.40
2022-07-25T06:22:19.702Z,26.50
2022-07-25T06:24:47.910Z,26.40
2022-07-25T06:27:20.259Z,26.40
2022-07-25T06:29:50.614Z,26.40
2022-07-25T06:32:18.843Z,26.40
2022-07-25T06:34:47.205Z,26.40
2022-07-25T06:37:16.120Z,26.30
2022-07-25T06:39:46.142Z,26.30
2022-07-25T06:42:17.523Z,26.30
2022-07-25T06:44:45.775Z,26.20
2022-07-25T06:47:15.959Z,26.30
2022-07-25T06:49:44.372Z,26.30
2022-07-25T06:52:16.035Z,26.30
2022-07-25T06:54:44.262Z,26.30
2022-07-25T06:57:12.498Z,26.30
2022-07-25T06:59:40.723Z,26.20
2022-07-25T07:02:09.483Z,26.20
2022-07-25T07:04:39.074Z,26.20
2022-07-25T07:07:07.301Z,26.20
2022-07-25T07:09:35.513Z,26.20
2022-07-25T07:12:04.295Z,26.20
2022-07-25T07:14:32.518Z,26.20
2022-07-25T07:17:00.737Z,26.20
2022-07-25T07:19:28.948Z,26.20
2022-07-25T07:21:58.545Z,26.10
2022-07-25T07:24:27.117Z,26.20
2022-07-25T07:26:55.538Z,26.20
2022-07-25T07:29:24.862Z,26.60
2022-07-25T07:31:53.385Z,26.10
2022-07-25T07:34:22.437Z,26.20
2022-07-25T07:36:53.721Z,26.20
2022-07-25T07:39:23.363Z,26.20
2022-07-25T07:41:51.580Z,26.20
2022-07-25T07:44:19.811Z,26.20
2022-07-25T07:46:48.065Z,26.20
2022-07-25T07:49:16.482Z,26.20
2022-07-25T07:51:44.749Z,26.20
2022-07-25T07:54:30.600Z,26.20
2022-07-25T07:57:00.190Z,26.20
2022-07-25T07:59:28.382Z,26.20
2022-07-25T08:01:57.070Z,26.20
2022-07-25T08:04:25.363Z,26.20
2022-07-25T08:06:53.701Z,26.20
2022-07-25T08:09:21.903Z,26.20
2022-07-25T08:11:50.125Z,26.20
2022-07-25T08:14:19.942Z,26.10
2022-07-25T08:16:48.172Z,26.20
2022-07-25T08:19:16.382Z,26.20
2022-07-25T08:21:46.853Z,26.20
2022-07-25T08:24:15.682Z,26.20
2022-07-25T08:26:43.893Z,26.20
2022-07-25T08:29:19.071Z,26.20
2022-07-25T08:31:49.704Z,26.20
2022-07-25T08:34:18.014Z,26.20
2022-07-25T08:36:46.224Z,26.20
2022-07-25T08:39:14.465Z,26.20
2022-07-25T08:41:50.189Z,26.20
2022-07-25T08:44:18.527Z,26.20
2022-07-25T08:46:46.834Z,26.20
2022-07-25T08:49:16.558Z,26.20
2022-07-25T08:51:44.817Z,26.20
2022-07-25T08:54:13.109Z,26.20
2022-07-25T08:56:42.386Z,26.20
2022-07-25T08:59:11.011Z,26.20
2022-07-25T09:01:40.525Z,26.20
2022-07-25T09:04:09.573Z,26.20
2022-07-25T09:06:51.690Z,26.20
2022-07-25T09:09:19.987Z,26.10
2022-07-25T09:11:48.255Z,26.20
2022-07-25T09:14:16.548Z,26.10
2022-07-25T09:16:45.746Z,26.10
2022-07-25T09:19:14.835Z,26.20
2022-07-25T09:21:45.421Z,26.20
2022-07-25T09:24:17.095Z,26.20
2022-07-25T09:26:49.988Z,26.10
2022-07-25T09:29:22.617Z,26.10
2022-07-25T09:31:50.851Z,26.10
2022-07-25T09:34:30.870Z,26.10
2022-07-25T09:36:59.439Z,26.10
2022-07-25T09:39:45.365Z,26.10
2022-07-25T09:42:33.469Z,26.10
2022-07-25T09:45:06.704Z,26.10
2022-07-25T09:47:36.772Z,26.10
2022-07-25T09:50:06.142Z,26.10
2022-07-25T09:52:34.532Z,26.10
2022-07-25T09:55:06.471Z,26.10
2022-07-25T09:57:34.748Z,26.20
2022-07-25T10:00:07.607Z,26.10
2022-07-25T10:02:42.175Z,26.10
2022-07-25T10:05:13.919Z,26.10
2022-07-25T10:07:44.381Z,26.10
2022-07-25T10:10:23.090Z,26.10
2022-07-25T10:13:07.841Z,26.10
2022-07-25T10:15:48.670Z,26.10
2022-07-25T10:18:17.549Z,26.10
2022-07-25T10:20:46.692Z,26.10
2022-07-25T10:23:19.426Z,26.10
2022-07-25T10:25:49.453Z,26.10
2022-07-25T10:28:21.248Z,26.10
2022-07-25T10:30:49.479Z,26.10
2022-07-25T10:33:20.030Z,26.10
2022-07-25T10:35:48.446Z,26.00
2022-07-25T10:38:24.548Z,26.00
2022-07-25T10:40:54.123Z,26.00
2022-07-25T10:43:25.633Z,26.00
2022-07-25T10:45:55.305Z,26.10
2022-07-25T10:48:25.194Z,26.00
2022-07-25T10:50:56.185Z,26.00
2022-07-25T10:53:35.130Z,26.00
2022-07-25T10:56:10.047Z,26.00
2022-07-25T10:58:48.759Z,26.00
2022-07-25T11:01:21.286Z,26.00
2022-07-25T11:03:49.784Z,26.00
2022-07-25T11:06:18.134Z,26.00
2022-07-25T11:08:46.852Z,26.00
2022-07-25T11:11:16.457Z,26.00
2022-07-25T11:13:45.127Z,26.00
2022-07-25T11:16:13.580Z,26.00
2022-07-25T11:18:44.859Z,26.00
2022-07-25T11:21:13.054Z,26.00
2022-07-25T11:23:41.581Z,26.00
2022-07-25T11:26:10.491Z,26.50
2022-07-25T11:28:44.601Z,25.90
2022-07-25T11:31:13.415Z,25.90
2022-07-25T11:33:42.180Z,25.90
2022-07-25T11:36:13.436Z,25.90
2022-07-25T11:38:42.054Z,25.90
2022-07-25T11:41:10.436Z,25.90
2022-07-25T11:43:38.655Z,25.90
2022-07-25T11:46:08.385Z,25.90
2022-07-25T11:48:37.823Z,25.90
2022-07-25T11:51:18.334Z,25.90
2022-07-25T11:53:48.438Z,25.90
2022-07-25T11:56:41.212Z,25.90
2022-07-25T11:59:07.664Z,25.90
2022-07-25T12:01:39.362Z,25.90
2022-07-25T12:04:11.843Z,25.90
2022-07-25T12:06:40.578Z,25.90
2022-07-25T12:09:18.845Z,25.90
2022-07-25T12:11:48.032Z,25.90
2022-07-25T12:14:16.684Z,25.80
2022-07-25T12:16:46.476Z,25.80
2022-07-25T12:19:21.603Z,25.90
2022-07-25T12:21:49.846Z,25.90
2022-07-25T12:24:18.049Z,25.80
2022-07-25T12:26:46.285Z,25.80
2022-07-25T12:29:14.565Z,25.80
2022-07-25T12:31:42.777Z,25.90
2022-07-25T12:34:12.393Z,25.90
2022-07-25T12:36:45.363Z,25.90
2022-07-25T12:39:13.646Z,25.90
2022-07-25T12:41:42.793Z,25.90
2022-07-25T12:44:11.375Z,25.90
2022-07-25T12:46:47.236Z,25.90
2022-07-25T12:49:18.854Z,25.90
2022-07-25T12:51:47.144Z,25.90
2022-07-25T12:54:21.713Z,25.90
2022-07-25T12:56:50.691Z,25.80
2022-07-25T12:59:18.911Z,25.80
2022-07-25T13:01:47.222Z,25.90
2022-07-25T13:04:15.513Z,25.80
2022-07-25T13:06:45.119Z,25.80
2022-07-25T13:09:13.290Z,25.80
2022-07-25T13:11:42.494Z,25.80
2022-07-25T13:14:10.717Z,25.80
2022-07-25T13:16:39.186Z,25.80
2022-07-25T13:19:08.003Z,25.80
2022-07-25T13:21:37.499Z,25.80
2022-07-25T13:24:08.281Z,25.80
2022-07-25T13:26:36.799Z,25.80
2022-07-25T13:29:08.620Z,25.80
2022-07-25T13:31:38.537Z,25.80
2022-07-25T13:34:06.840Z,25.80
2022-07-25T13:36:35.313Z,25.80
2022-07-25T13:39:03.755Z,25.80
2022-07-25T13:41:33.549Z,25.80
2022-07-25T13:44:01.725Z,25.80
2022-07-25T13:46:29.931Z,25.80
2022-07-25T13:48:58.259Z,25.80
2022-07-25T13:51:26.555Z,25.70
2022-07-25T13:53:54.763Z,25.80
2022-07-25T13:56:22.957Z,25.80
2022-07-25T13:58:52.535Z,25.80
2022-07-25T14:01:20.794Z,25.80
2022-07-25T14:03:51.880Z,25.80
2022-07-25T14:06:20.128Z,25.80
2022-07-25T14:08:48.423Z,25.80
2022-07-25T14:11:16.621Z,25.80
2022-07-25T14:13:45.408Z,25.80
2022-07-25T14:16:17.488Z,25.80
2022-07-25T14:18:45.746Z,25.80
2022-07-25T14:21:13.947Z,25.80
2022-07-25T14:23:42.605Z,25.80
2022-07-25T14:26:10.760Z,25.80
2022-07-25T14:28:39.005Z,25.90
2022-07-25T14:31:07.319Z,25.90
2022-07-25T14:33:40.142Z,25.80
2022-07-25T14:36:09.024Z,25.80
2022-07-25T14:38:37.329Z,25.80
2022-07-25T14:41:10.682Z,25.90
2022-07-25T14:43:40.878Z,25.80
2022-07-25T14:46:09.187Z,25.90
2022-07-25T14:48:38.985Z,25.90
2022-07-25T14:51:07.725Z,25.90
2022-07-25T14:53:36.055Z,25.90
2022-07-25T14:56:04.386Z,25.90
2022-07-25T14:58:32.645Z,25.90
2022-07-25T15:01:00.989Z,25.90
2022-07-25T15:03:29.307Z,25.90
2022-07-25T15:05:58.922Z,25.90
2022-07-25T15:08:27.176Z,25.90
2022-07-25T15:10:55.380Z,25.90
2022-07-25T15:13:32.428Z,25.90
2022-07-25T15:16:01.030Z,25.90
2022-07-25T15:18:32.262Z,25.90
2022-07-25T15:21:05.672Z,25.90
2022-07-25T15:23:33.918Z,25.90
2022-07-25T15:26:03.525Z,25.90
2022-07-25T15:28:32.846Z,25.90
2022-07-25T15:31:01.316Z,25.90
2022-07-25T15:33:29.635Z,25.90
2022-07-25T15:35:57.810Z,25.90
2022-07-25T15:38:27.413Z,25.90
2022-07-25T15:40:55.592Z,25.90
2022-07-25T15:43:24.375Z,26.00
2022-07-25T15:45:53.433Z,26.00
2022-07-25T15:48:21.681Z,26.00
2022-07-25T15:50:51.539Z,25.90
2022-07-25T15:53:19.806Z,25.90
2022-07-25T15:55:49.384Z,25.90
2022-07-25T15:58:17.551Z,26.00
2022-07-25T16:00:45.810Z,26.00
2022-07-25T16:03:14.451Z,26.00
2022-07-25T16:05:42.665Z,26.00
2022-07-25T16:08:11.163Z,26.00
2022-07-25T16:10:39.528Z,26.00
2022-07-25T16:13:09.082Z,26.00
2022-07-25T16:15:37.569Z,26.00
2022-07-25T16:18:05.782Z,26.00
2022-07-25T16:20:36.869Z,26.00
2022-07-25T16:23:05.048Z,26.00
2022-07-25T16:25:33.441Z,26.00
2022-07-25T16:28:01.683Z,26.00
2022-07-25T16:30:31.346Z,26.00
2022-07-25T16:32:59.595Z,26.00
2022-07-25T16:35:27.872Z,26.00
2022-07-25T16:37:56.076Z,26.10
2022-07-25T16:40:30.708Z,26.10
2022-07-25T16:42:59.828Z,26.00
2022-07-25T16:45:28.283Z,26.00
2022-07-25T16:47:57.977Z,26.00
2022-07-25T16:50:26.231Z,26.00
2022-07-25T16:52:54.943Z,26.00
2022-07-25T16:55:23.218Z,26.10
2022-07-25T16:57:51.427Z,26.10
2022-07-25T17:00:20.459Z,26.10
2022-07-25T17:02:48.658Z,26.10
2022-07-25T17:05:18.553Z,26.10
2022-07-25T17:07:47.500Z,26.10
2022-07-25T17:10:15.687Z,26.10
2022-07-25T17:12:43.949Z,26.10
2022-07-25T17:15:12.971Z,26.10
2022-07-25T17:17:41.173Z,26.10
2022-07-25T17:20:10.577Z,26.10
2022-07-25T17:22:40.210Z,26.10
2022-07-25T17:25:08.930Z,26.10
2022-07-25T17:27:37.346Z,26.10
2022-07-25T17:30:06.585Z,26.10
2022-07-25T17:32:34.898Z,26.10
2022-07-25T17:35:03.188Z,26.10
2022-07-25T17:37:42.912Z,26.10
2022-07-25T17:40:19.536Z,26.10
2022-07-25T17:42:56.622Z,26.10
2022-07-25T17:45:39.045Z,26.20
2022-07-25T17:48:10.081Z,26.30
2022-07-25T17:50:43.745Z,26.40
2022-07-25T17:53:25.840Z,26.50
2022-07-25T17:55:58.367Z,26.60
2022-07-25T17:58:35.643Z,26.70
2022-07-25T18:01:19.618Z,26.70
2022-07-25T18:03:53.364Z,26.80
2022-07-25T18:06:30.063Z,26.80
2022-07-25T18:09:20.409Z,26.90
2022-07-25T18:11:50.033Z,26.90
2022-07-25T18:14:32.044Z,26.90
2022-07-25T18:17:12.638Z,27.40
2022-07-25T18:19:46.608Z,27.00
2022-07-25T18:22:26.443Z,27.00
2022-07-25T18:25:11.605Z,27.10
2022-07-25T18:27:57.221Z,27.10
2022-07-25T18:30:31.071Z,27.10
2022-07-25T18:33:16.341Z,27.10
2022-07-25T18:35:44.711Z,27.20
2022-07-25T18:40:42.442Z,27.30
2022-07-25T18:43:11.857Z,27.30
2022-07-25T18:45:40.113Z,27.30
2022-07-25T18:48:08.824Z,27.30
2022-07-25T18:50:37.066Z,27.40
2022-07-25T18:53:05.806Z,27.40
2022-07-25T18:55:34.039Z,27.40
2022-07-25T18:58:03.690Z,27.50
2022-07-25T19:00:32.088Z,27.50
2022-07-25T19:03:00.309Z,27.50
2022-07-25T19:05:28.690Z,27.50
2022-07-25T19:07:59.780Z,27.50
2022-07-25T19:10:28.048Z,27.50
2022-07-25T19:12:56.377Z,27.60
2022-07-25T19:15:27.996Z,27.50
2022-07-25T19:17:56.302Z,27.60
2022-07-25T19:20:24.881Z,27.60
2022-07-25T19:22:53.120Z,27.70
2022-07-25T19:25:21.576Z,27.70
2022-07-25T19:27:51.158Z,27.70
2022-07-25T19:30:20.027Z,27.80
2022-07-25T19:32:49.652Z,27.70
2022-07-25T19:35:24.109Z,27.70
2022-07-25T19:37:54.315Z,27.70
2022-07-25T19:40:22.721Z,27.80
2022-07-25T19:42:50.991Z,27.80
2022-07-25T19:45:19.226Z,27.80
2022-07-25T19:47:47.445Z,27.80
2022-07-25T19:50:17.081Z,27.80
2022-07-25T19:52:45.329Z,27.80
2022-07-25T19:55:13.524Z,27.90
2022-07-25T19:57:42.626Z,27.80
2022-07-25T20:00:11.627Z,27.90
2022-07-25T20:02:40.747Z,27.90
2022-07-25T20:05:09.826Z,27.80
2022-07-25T20:07:39.469Z,27.90
2022-07-25T20:10:08.864Z,27.90
2022-07-25T20:12:37.152Z,27.90
2022-07-25T20:15:06.277Z,27.90
2022-07-25T20:17:34.496Z,27.90
2022-07-25T20:20:02.709Z,28.00
2022-07-25T20:22:31.664Z,28.00
2022-07-25T20:25:01.290Z,28.00
2022-07-25T20:27:29.513Z,28.00
2022-07-25T20:29:57.681Z,28.00
2022-07-25T20:32:25.926Z,28.00
2022-07-25T20:34:54.208Z,28.00
2022-07-25T20:37:22.507Z,28.00
2022-07-25T20:39:50.738Z,28.00
2022-07-25T20:42:20.945Z,28.10
2022-07-25T20:44:49.205Z,28.10
2022-07-25T20:47:17.796Z,28.10
2022-07-25T20:49:46.236Z,28.10
2022-07-25T20:52:14.647Z,28.10
2022-07-25T20:54:43.188Z,28.10
2022-07-25T20:57:13.018Z,28.10
2022-07-25T20:59:43.667Z,28.10
2022-07-25T21:02:12.024Z,28.10
2022-07-25T21:04:40.265Z,28.10
2022-07-25T21:07:08.495Z,28.10
2022-07-25T21:09:39.542Z,28.10
2022-07-25T21:12:08.361Z,28.10
2022-07-25T21:14:36.604Z,28.10
2022-07-25T21:17:06.291Z,28.20
2022-07-25T21:19:34.610Z,28.20
2022-07-25T21:22:03.054Z,28.20
2022-07-25T21:24:31.342Z,28.20
2022-07-25T21:26:59.647Z,28.20
2022-07-25T21:29:27.936Z,28.20
2022-07-25T21:31:56.265Z,28.70
2022-07-25T21:34:25.930Z,28.30
2022-07-25T21:36:54.204Z,28.20
2022-07-25T21:39:22.436Z,28.20
2022-07-25T21:41:56.138Z,28.20
2022-07-25T21:44:25.191Z,28.20
2022-07-25T21:46:53.769Z,28.20
2022-07-25T21:49:41.468Z,28.20
2022-07-25T21:52:13.743Z,28.20
2022-07-25T21:54:42.376Z,28.20
2022-07-25T21:57:13.827Z,28.30
2022-07-25T21:59:42.316Z,28.30
2022-07-25T22:02:10.493Z,28.30
2022-07-25T22:04:38.845Z,28.30
2022-07-25T22:07:07.050Z,28.30
2022-07-25T22:09:36.798Z,28.30
2022-07-25T22:12:05.323Z,28.30
2022-07-25T22:14:33.556Z,28.30
2022-07-25T22:17:01.811Z,28.30
2022-07-25T22:19:30.095Z,28.30
2022-07-25T22:21:58.286Z,28.30
2022-07-25T22:24:26.539Z,28.30
2022-07-25T22:26:56.598Z,28.30
2022-07-25T22:29:24.854Z,28.30
2022-07-25T22:31:53.114Z,28.30
2022-07-25T22:34:27.541Z,28.30
2022-07-25T22:36:55.758Z,28.30
2022-07-25T22:39:23.992Z,28.40
2022-07-25T22:41:52.292Z,28.40
2022-07-25T22:44:21.943Z,28.40
2022-07-25T22:46:50.143Z,28.40
2022-07-25T22:49:18.436Z,28.40
2022-07-25T22:51:46.654Z,28.40
2022-07-25T22:54:14.928Z,28.40
2022-07-25T22:56:43.178Z,28.40
2022-07-25T22:59:11.541Z,28.40
2022-07-25T23:01:41.167Z,28.30
2022-07-25T23:04:09.451Z,28.40
2022-07-25T23:06:37.676Z,28.40
2022-07-25T23:09:06.263Z,28.40
2022-07-25T23:11:34.635Z,28.40
2022-07-25T23:14:02.788Z,28.50
2022-07-25T23:16:30.977Z,28.40
2022-07-25T23:19:00.659Z,28.40
2022-07-25T23:21:28.841Z,28.40
2022-07-25T23:23:58.795Z,28.50
2022-07-25T23:26:27.092Z,29.00
2022-07-25T23:28:55.283Z,28.50
2022-07-25T23:31:23.596Z,28.50
2022-07-25T23:33:52.086Z,28.50
2022-07-25T23:36:21.675Z,28.50
2022-07-25T23:38:49.835Z,28.50
2022-07-25T23:41:18.182Z,28.50
2022-07-25T23:43:52.231Z,28.50
2022-07-25T23:46:27.720Z,28.50
2022-07-25T23:48:57.817Z,28.60
2022-07-25T23:51:27.481Z,28.50
2022-07-25T23:53:55.633Z,28.50
2022-07-25T23:56:23.847Z,28.60
2022-07-25T23:58:52.111Z,28.60
